createdAt,value
2023-01-07T00:01:10.027Z,10.70
2023-01-07T00:03:37.856Z,10.70
2023-01-07T00:06:10.691Z,10.70
2023-01-07T00:08:39.546Z,10.60
2023-01-07T00:11:12.112Z,10.60
2023-01-07T00:13:39.105Z,10.60
2023-01-07T00:16:08.398Z,10.60
2023-01-07T00:18:36.067Z,10.50
2023-01-07T00:21:06.280Z,10.60
2023-01-07T00:23:34.459Z,10.60
2023-01-07T00:26:03.623Z,10.50
2023-01-07T00:28:31.169Z,10.50
2023-01-07T00:31:02.207Z,10.60
2023-01-07T00:33:29.385Z,10.50
2023-01-07T00:36:00.948Z,10.50
2023-01-07T00:38:27.885Z,10.50
2023-01-07T00:40:54.540Z,10.50
2023-01-07T00:43:21.273Z,10.50
2023-01-07T00:45:48.110Z,10.50
2023-01-07T00:48:15.255Z,10.60
2023-01-07T00:50:41.891Z,10.50
2023-01-07T00:53:10.232Z,10.50
2023-01-07T00:55:36.890Z,10.50
2023-01-07T00:58:03.906Z,10.50
2023-01-07T01:00:30.735Z,10.40
2023-01-07T01:02:57.504Z,10.40
2023-01-07T01:05:24.152Z,10.40
2023-01-07T01:07:50.836Z,10.30
2023-01-07T01:10:19.693Z,10.30
2023-01-07T01:12:47.515Z,10.30
2023-01-07T01:15:16.160Z,10.30
2023-01-07T01:17:43.063Z,10.20
2023-01-07T01:20:13.688Z,10.30
2023-01-07T01:22:40.685Z,10.30
2023-01-07T01:25:08.803Z,10.30
2023-01-07T01:27:35.528Z,10.40
2023-01-07T01:30:02.501Z,10.50
2023-01-07T01:32:29.946Z,10.50
2023-01-07T01:34:56.601Z,10.50
2023-01-07T01:37:23.293Z,10.60
2023-01-07T01:39:49.964Z,10.50
2023-01-07T01:42:21.710Z,10.50
2023-01-07T01:44:55.556Z,10.60
2023-01-07T01:47:33.272Z,10.50
2023-01-07T01:50:17.652Z,10.50
2023-01-07T01:52:59.400Z,10.50
2023-01-07T01:55:30.776Z,10.50
2023-01-07T01:58:01.751Z,10.40
2023-01-07T02:00:29.578Z,10.40
2023-01-07T02:02:58.512Z,10.40
2023-01-07T02:05:44.043Z,10.40
2023-01-07T02:08:10.722Z,10.30
2023-01-07T02:10:38.467Z,10.30
2023-01-07T02:13:42.814Z,10.20
2023-01-07T02:16:19.202Z,10.20
2023-01-07T02:19:03.159Z,10.20
2023-01-07T02:22:10.178Z,10.20
2023-01-07T02:24:36.816Z,10.20
2023-01-07T02:27:13.471Z,10.20
2023-01-07T02:30:04.428Z,10.20
2023-01-07T02:32:49.237Z,10.20
2023-01-07T02:35:15.810Z,10.20
2023-01-07T02:38:04.268Z,10.30
2023-01-07T02:40:39.716Z,10.30
2023-01-07T02:43:22.080Z,10.30
2023-01-07T02:46:14.517Z,10.30
2023-01-07T02:48:43.949Z,10.30
2023-01-07T02:51:10.626Z,10.30
2023-01-07T02:53:37.851Z,10.30
2023-01-07T02:56:24.618Z,10.30
2023-01-07T02:59:02.971Z,10.40
2023-01-07T03:01:52.668Z,10.40
2023-01-07T03:04:45.620Z,10.40
2023-01-07T03:07:17.900Z,10.40
2023-01-07T03:10:00.379Z,10.40
2023-01-07T03:12:38.381Z,10.40
2023-01-07T03:15:22.351Z,10.40
2023-01-07T03:17:53.854Z,10.40
2023-01-07T03:20:24.454Z,10.30
2023-01-07T03:22:53.309Z,10.30
2023-01-07T03:25:22.409Z,10.30
2023-01-07T03:27:51.757Z,10.20
2023-01-07T03:30:19.687Z,10.20
2023-01-07T03:32:52.266Z,10.30
2023-01-07T03:35:21.839Z,10.30
2023-01-07T03:37:50.288Z,10.20
2023-01-07T03:40:19.315Z,10.20
2023-01-07T03:42:48.951Z,10.20
2023-01-07T03:45:18.842Z,10.20
2023-01-07T03:47:51.151Z,10.20
2023-01-07T03:50:18.305Z,10.30
2023-01-07T03:52:45.293Z,10.20
2023-01-07T03:55:12.283Z,10.20
2023-01-07T03:57:38.927Z,10.20
2023-01-07T04:00:08.255Z,10.30
2023-01-07T04:02:35.123Z,10.30
2023-01-07T04:05:01.783Z,10.20
2023-01-07T04:07:28.466Z,10.20
2023-01-07T04:09:55.134Z,10.20
2023-01-07T04:12:21.771Z,10.20
2023-01-07T04:14:48.418Z,10.30
2023-01-07T04:17:15.039Z,10.30
2023-01-07T04:19:41.684Z,10.30
2023-01-07T04:22:10.737Z,10.20
2023-01-07T04:24:37.584Z,10.30
2023-01-07T04:27:04.494Z,10.20
2023-01-07T04:29:31.397Z,10.30
2023-01-07T04:31:58.188Z,10.20
2023-01-07T04:34:24.875Z,10.30
2023-01-07T04:36:51.552Z,10.30
2023-01-07T04:39:18.203Z,10.30
2023-01-07T04:41:45.157Z,10.30
2023-01-07T04:44:11.975Z,10.40
2023-01-07T04:46:38.610Z,10.40
2023-01-07T04:49:05.215Z,10.40
2023-01-07T04:51:31.922Z,10.30
2023-01-07T04:53:58.586Z,10.30
2023-01-07T04:56:25.295Z,10.20
2023-01-07T04:58:51.954Z,10.30
2023-01-07T05:01:18.838Z,10.30
2023-01-07T05:03:45.607Z,10.30
2023-01-07T05:06:12.290Z,10.30
2023-01-07T05:08:38.929Z,10.30
2023-01-07T05:11:05.722Z,10.30
2023-01-07T05:13:35.158Z,10.40
2023-01-07T05:16:02.834Z,10.30
2023-01-07T05:18:30.151Z,10.30
2023-01-07T05:20:56.793Z,10.30
2023-01-07T05:23:23.465Z,10.30
2023-01-07T05:25:50.110Z,10.30
2023-01-07T05:28:16.752Z,10.30
2023-01-07T05:30:43.408Z,10.40
2023-01-07T05:33:10.038Z,10.30
2023-01-07T05:35:36.724Z,10.30
2023-01-07T05:38:03.761Z,10.20
2023-01-07T05:40:30.428Z,10.20
2023-01-07T05:42:57.065Z,10.20
2023-01-07T05:45:23.746Z,10.20
2023-01-07T05:47:50.385Z,10.30
2023-01-07T05:50:17.153Z,10.20
2023-01-07T05:52:43.783Z,10.10
2023-01-07T05:55:10.429Z,10.10
2023-01-07T05:57:37.091Z,10.10
2023-01-07T06:00:04.697Z,10.10
2023-01-07T06:02:31.386Z,10.10
2023-01-07T06:04:58.016Z,10.10
2023-01-07T06:07:24.666Z,10.00
2023-01-07T06:09:51.310Z,9.90
2023-01-07T06:12:18.039Z,9.90
2023-01-07T06:14:44.665Z,9.90
2023-01-07T06:17:11.288Z,10.00
2023-01-07T06:19:38.037Z,10.10
2023-01-07T06:22:04.749Z,10.00
2023-01-07T06:24:31.403Z,10.10
2023-01-07T06:26:58.264Z,10.10
2023-01-07T06:29:24.975Z,10.10
2023-01-07T06:31:51.666Z,10.00
2023-01-07T06:34:18.300Z,10.00
2023-01-07T06:36:44.932Z,10.00
2023-01-07T06:39:11.818Z,10.00
2023-01-07T06:41:38.442Z,10.00
2023-01-07T06:44:05.138Z,10.00
2023-01-07T06:46:32.259Z,10.00
2023-01-07T06:48:58.911Z,9.90
2023-01-07T06:51:25.547Z,9.90
2023-01-07T06:53:52.223Z,10.00
2023-01-07T06:56:18.989Z,10.00
2023-01-07T06:58:45.693Z,10.00
2023-01-07T07:01:12.552Z,10.00
2023-01-07T07:03:39.417Z,10.00
2023-01-07T07:06:06.313Z,10.00
2023-01-07T07:08:33.077Z,10.10
2023-01-07T07:10:59.757Z,10.10
2023-01-07T07:13:26.398Z,10.10
2023-01-07T07:15:53.104Z,10.10
2023-01-07T07:18:20.131Z,10.00
2023-01-07T07:20:47.485Z,10.00
2023-01-07T07:23:14.246Z,10.00
2023-01-07T07:25:40.948Z,10.00
2023-01-07T07:28:07.653Z,10.00
2023-01-07T07:30:46.735Z,10.10
2023-01-07T07:33:15.680Z,10.00
2023-01-07T07:35:42.420Z,10.00
2023-01-07T07:38:09.176Z,10.00
2023-01-07T07:40:36.223Z,10.10
2023-01-07T07:43:11.915Z,10.10
2023-01-07T07:45:40.764Z,10.10
2023-01-07T07:48:09.160Z,10.10
2023-01-07T07:50:36.470Z,10.10
2023-01-07T07:53:03.221Z,10.10
2023-01-07T07:55:29.894Z,10.10
2023-01-07T07:57:58.354Z,10.10
2023-01-07T08:00:25.617Z,10.10
2023-01-07T08:02:52.604Z,10.10
2023-01-07T08:05:19.248Z,10.10
2023-01-07T08:07:45.917Z,10.20
2023-01-07T08:10:12.573Z,10.10
2023-01-07T08:12:39.894Z,10.20
2023-01-07T08:15:08.037Z,10.20
2023-01-07T08:17:36.250Z,10.20
2023-01-07T08:20:07.363Z,10.20
2023-01-07T08:22:34.158Z,10.20
2023-01-07T08:25:01.086Z,10.20
2023-01-07T08:27:28.191Z,10.20
2023-01-07T08:29:55.919Z,10.20
2023-01-07T08:32:22.771Z,10.30
2023-01-07T08:34:49.391Z,10.20
2023-01-07T08:37:16.133Z,10.20
2023-01-07T08:39:42.753Z,10.20
2023-01-07T08:42:09.401Z,10.20
2023-01-07T08:44:36.029Z,10.20
2023-01-07T08:47:02.807Z,10.30
2023-01-07T08:49:29.516Z,10.30
2023-01-07T08:51:56.148Z,10.30
2023-01-07T08:54:22.981Z,10.40
2023-01-07T08:56:49.610Z,10.40
2023-01-07T08:59:16.263Z,10.40
2023-01-07T09:01:43.002Z,10.40
2023-01-07T09:04:09.764Z,10.40
2023-01-07T09:06:36.385Z,10.40
2023-01-07T09:09:03.244Z,10.40
2023-01-07T09:11:29.905Z,10.40
2023-01-07T09:13:56.580Z,10.50
2023-01-07T09:16:23.280Z,10.40
2023-01-07T09:18:50.570Z,10.40
2023-01-07T09:21:17.205Z,10.40
2023-01-07T09:23:43.840Z,10.40
2023-01-07T09:26:10.490Z,10.40
2023-01-07T09:28:37.099Z,10.40
2023-01-07T09:31:04.249Z,10.40
2023-01-07T09:33:31.414Z,10.40
2023-01-07T09:35:58.049Z,10.40
2023-01-07T09:38:24.753Z,10.40
2023-01-07T09:40:51.936Z,10.50
2023-01-07T09:44:01.155Z,10.50
2023-01-07T09:46:15.660Z,10.60
2023-01-07T09:48:47.387Z,10.70
2023-01-07T09:51:25.527Z,10.70
2023-01-07T09:53:54.866Z,10.70
2023-01-07T09:56:28.803Z,10.80
2023-01-07T09:58:57.373Z,10.80
2023-01-07T10:01:30.694Z,10.80
2023-01-07T10:04:31.124Z,10.80
2023-01-07T10:06:58.786Z,10.90
2023-01-07T10:09:31.163Z,11.00
2023-01-07T10:12:29.714Z,11.10
2023-01-07T10:15:07.310Z,11.10
2023-01-07T10:17:43.901Z,11.20
2023-01-07T10:20:25.633Z,11.30
2023-01-07T10:22:56.578Z,11.30
2023-01-07T10:25:28.595Z,11.80
2023-01-07T10:27:58.592Z,11.40
2023-01-07T10:30:28.974Z,11.60
2023-01-07T10:33:26.678Z,11.70
2023-01-07T10:36:03.156Z,11.70
2023-01-07T10:38:35.511Z,11.70
2023-01-07T10:41:11.637Z,11.80
2023-01-07T10:43:56.837Z,11.70
2023-01-07T10:46:41.916Z,11.70
2023-01-07T10:49:47.125Z,11.80
2023-01-07T10:52:37.669Z,11.90
2023-01-07T10:55:21.984Z,12.00
2023-01-07T10:57:49.198Z,12.00
2023-01-07T11:00:17.621Z,12.00
2023-01-07T11:02:49.211Z,12.10
2023-01-07T11:05:20.948Z,12.10
2023-01-07T11:07:52.485Z,12.10
2023-01-07T11:10:20.669Z,12.00
2023-01-07T11:12:57.813Z,12.00
2023-01-07T11:15:35.936Z,11.90
2023-01-07T11:18:29.091Z,11.90
2023-01-07T11:20:58.131Z,11.80
2023-01-07T11:23:33.652Z,11.80
2023-01-07T11:26:08.543Z,11.80
2023-01-07T11:28:36.547Z,11.70
2023-01-07T11:31:03.244Z,11.70
2023-01-07T11:34:03.689Z,11.70
2023-01-07T11:36:43.838Z,11.70
2023-01-07T11:39:19.904Z,11.70
2023-01-07T11:41:57.379Z,11.70
2023-01-07T11:44:24.226Z,11.70
2023-01-07T11:46:51.553Z,11.70
2023-01-07T11:49:26.201Z,11.70
2023-01-07T11:51:53.545Z,11.70
2023-01-07T11:54:23.516Z,11.70
2023-01-07T11:56:50.434Z,11.60
2023-01-07T11:59:20.055Z,11.60
2023-01-07T12:01:51.885Z,11.60
2023-01-07T12:04:27.588Z,11.60
2023-01-07T12:07:00.826Z,11.60
2023-01-07T12:09:37.488Z,11.50
2023-01-07T12:12:31.797Z,11.40
2023-01-07T12:15:04.918Z,11.40
2023-01-07T12:17:34.893Z,11.40
2023-01-07T12:20:35.714Z,11.40
2023-01-07T12:23:39.027Z,11.50
2023-01-07T12:26:19.716Z,11.50
2023-01-07T12:28:49.335Z,11.40
2023-01-07T12:31:22.177Z,11.40
2023-01-07T12:34:05.968Z,11.40
2023-01-07T12:37:00.650Z,11.40
2023-01-07T12:39:37.520Z,11.40
2023-01-07T12:42:13.774Z,11.30
2023-01-07T12:44:46.099Z,11.30
2023-01-07T12:47:31.974Z,11.30
2023-01-07T12:50:05.040Z,11.30
2023-01-07T12:52:37.632Z,11.30
2023-01-07T12:55:32.067Z,11.40
2023-01-07T12:58:20.847Z,11.30
2023-01-07T13:01:15.557Z,11.30
2023-01-07T13:04:19.213Z,11.40
2023-01-07T13:07:01.604Z,11.40
2023-01-07T13:09:50.716Z,11.40
2023-01-07T13:12:43.442Z,11.40
2023-01-07T13:15:21.471Z,11.40
2023-01-07T13:17:53.904Z,11.40
2023-01-07T13:20:46.916Z,11.50
2023-01-07T13:23:39.250Z,11.50
2023-01-07T13:26:36.573Z,11.50
2023-01-07T13:29:24.420Z,11.50
2023-01-07T13:32:12.195Z,11.50
2023-01-07T13:35:06.470Z,11.50
2023-01-07T13:37:45.083Z,11.60
2023-01-07T13:40:50.076Z,11.50
2023-01-07T13:43:46.156Z,11.50
2023-01-07T13:46:17.844Z,11.50
2023-01-07T13:48:50.499Z,11.50
2023-01-07T13:51:35.301Z,11.50
2023-01-07T13:54:02.444Z,11.50
2023-01-07T13:56:34.712Z,11.50
2023-01-07T13:59:01.986Z,11.50
2023-01-07T14:01:29.897Z,11.50
2023-01-07T14:04:03.407Z,11.50
2023-01-07T14:06:30.011Z,11.50
2023-01-07T14:09:04.710Z,11.60
2023-01-07T14:11:32.467Z,11.50
2023-01-07T14:14:05.214Z,11.50
2023-01-07T14:16:44.496Z,11.60
2023-01-07T14:19:40.396Z,11.60
2023-01-07T14:22:42.161Z,11.60
2023-01-07T14:25:39.220Z,11.70
2023-01-07T14:28:08.641Z,11.70
2023-01-07T14:30:43.675Z,11.60
2023-01-07T14:33:17.726Z,11.60
2023-01-07T14:35:57.066Z,11.70
2023-01-07T14:38:29.744Z,11.70
2023-01-07T14:41:11.105Z,11.70
2023-01-07T14:43:40.823Z,11.60
2023-01-07T14:46:22.575Z,11.70
2023-01-07T14:48:58.382Z,11.70
2023-01-07T14:51:47.592Z,11.70
2023-01-07T14:54:32.981Z,11.60
2023-01-07T14:57:17.691Z,11.70
2023-01-07T15:00:01.614Z,11.70
2023-01-07T15:02:32.091Z,11.70
2023-01-07T15:05:06.336Z,11.70
2023-01-07T15:07:36.873Z,11.70
2023-01-07T15:10:37.138Z,11.80
2023-01-07T15:13:24.466Z,11.80
2023-01-07T15:16:02.956Z,11.80
2023-01-07T15:18:48.193Z,11.80
2023-01-07T15:21:26.514Z,11.80
2023-01-07T15:24:31.824Z,11.70
2023-01-07T15:27:17.212Z,11.80
2023-01-07T15:29:48.094Z,11.80
2023-01-07T15:32:49.179Z,11.80
2023-01-07T15:35:22.388Z,11.70
2023-01-07T15:37:50.756Z,11.60
2023-01-07T15:40:24.677Z,11.50
2023-01-07T15:42:53.484Z,11.40
2023-01-07T15:45:23.082Z,11.20
2023-01-07T15:47:50.746Z,11.10
2023-01-07T15:50:28.055Z,11.00
2023-01-07T15:53:11.242Z,10.80
2023-01-07T15:55:42.550Z,10.70
2023-01-07T15:58:18.047Z,10.60
2023-01-07T16:00:48.642Z,10.50
2023-01-07T16:03:17.871Z,10.40
2023-01-07T16:05:45.035Z,10.40
2023-01-07T16:08:20.887Z,10.30
2023-01-07T16:11:20.420Z,10.30
2023-01-07T16:13:56.738Z,10.30
2023-01-07T16:16:24.301Z,10.40
2023-01-07T16:18:58.366Z,10.50
2023-01-07T16:21:41.123Z,10.50
2023-01-07T16:24:07.875Z,10.60
2023-01-07T16:26:41.543Z,10.60
2023-01-07T16:29:19.690Z,10.60
2023-01-07T16:31:46.725Z,10.60
2023-01-07T16:34:24.924Z,10.50
2023-01-07T16:36:55.253Z,10.40
2023-01-07T16:39:25.463Z,10.50
2023-01-07T16:42:12.215Z,10.40
2023-01-07T16:44:44.601Z,10.30
2023-01-07T16:47:32.457Z,10.20
2023-01-07T16:50:14.476Z,10.20
2023-01-07T16:52:54.879Z,10.10
2023-01-07T16:55:48.016Z,10.00
2023-01-07T16:58:34.713Z,10.00
2023-01-07T17:01:02.396Z,10.00
2023-01-07T17:03:31.046Z,10.00
2023-01-07T17:06:04.250Z,9.90
2023-01-07T17:08:32.127Z,9.80
2023-01-07T17:11:13.711Z,9.70
2023-01-07T17:13:40.898Z,9.70
2023-01-07T17:16:31.456Z,9.70
2023-01-07T17:19:21.348Z,9.60
2023-01-07T17:21:48.106Z,9.60
2023-01-07T17:24:32.488Z,9.50
2023-01-07T17:27:02.355Z,9.40
2023-01-07T17:29:36.434Z,9.40
2023-01-07T17:32:04.367Z,9.40
2023-01-07T17:34:31.092Z,9.30
2023-01-07T17:36:57.717Z,9.30
2023-01-07T17:39:24.353Z,9.20
2023-01-07T17:42:09.578Z,9.20
2023-01-07T17:44:36.238Z,9.10
2023-01-07T17:47:02.875Z,9.00
2023-01-07T17:49:29.589Z,9.00
2023-01-07T17:51:56.243Z,9.00
2023-01-07T17:54:25.219Z,9.10
2023-01-07T17:56:52.345Z,9.00
2023-01-07T17:59:22.507Z,9.00
2023-01-07T18:01:51.398Z,8.90
2023-01-07T18:04:18.263Z,8.80
2023-01-07T18:06:45.287Z,8.70
2023-01-07T18:09:13.504Z,8.60
2023-01-07T18:12:02.521Z,8.60
2023-01-07T18:14:29.173Z,8.50
2023-01-07T18:16:55.919Z,8.40
2023-01-07T18:19:22.583Z,8.30
2023-01-07T18:21:49.322Z,8.30
2023-01-07T18:24:19.525Z,8.20
2023-01-07T18:26:46.702Z,8.10
2023-01-07T18:29:14.145Z,8.10
2023-01-07T18:31:42.906Z,8.00
2023-01-07T18:34:11.044Z,7.90
2023-01-07T18:36:38.405Z,7.90
2023-01-07T18:39:06.193Z,7.80
2023-01-07T18:41:33.933Z,7.70
2023-01-07T18:44:00.779Z,7.60
2023-01-07T18:46:27.508Z,7.60
2023-01-07T18:48:54.225Z,7.60
2023-01-07T18:51:20.863Z,7.60
2023-01-07T18:53:47.521Z,7.50
2023-01-07T18:56:14.261Z,7.50
2023-01-07T18:58:43.214Z,7.50
2023-01-07T19:01:10.828Z,7.50
2023-01-07T19:03:38.260Z,7.60
2023-01-07T19:06:09.305Z,7.70
2023-01-07T19:08:36.013Z,7.80
2023-01-07T19:11:09.094Z,7.90
2023-01-07T19:13:35.913Z,8.10
2023-01-07T19:16:07.025Z,8.20
2023-01-07T19:18:33.874Z,8.30
2023-01-07T19:21:05.160Z,8.40
2023-01-07T19:23:31.909Z,8.50
2023-01-07T19:26:04.416Z,8.50
2023-01-07T19:28:32.664Z,8.60
2023-01-07T19:30:59.727Z,8.70
2023-01-07T19:33:26.618Z,8.80
2023-01-07T19:36:07.698Z,8.80
2023-01-07T19:38:38.314Z,8.80
2023-01-07T19:41:10.863Z,8.90
2023-01-07T19:43:38.866Z,8.90
2023-01-07T19:46:07.327Z,9.00
2023-01-07T19:48:34.015Z,9.00
2023-01-07T19:51:03.306Z,9.00
2023-01-07T19:53:31.589Z,9.10
2023-01-07T19:56:02.923Z,9.20
2023-01-07T19:58:30.041Z,9.20
2023-01-07T20:01:05.871Z,9.30
2023-01-07T20:03:34.226Z,9.30
2023-01-07T20:06:04.810Z,9.40
2023-01-07T20:08:31.548Z,9.30
2023-01-07T20:10:59.753Z,9.30
2023-01-07T20:13:28.389Z,9.30
2023-01-07T20:15:55.648Z,9.20
2023-01-07T20:18:22.903Z,9.20
2023-01-07T20:20:59.553Z,9.20
2023-01-07T20:23:27.451Z,9.10
2023-01-07T20:25:54.086Z,9.10
2023-01-07T20:28:21.548Z,9.10
2023-01-07T20:30:48.351Z,9.10
2023-01-07T20:33:15.109Z,9.10
2023-01-07T20:35:43.112Z,9.10
2023-01-07T20:38:11.304Z,9.10
2023-01-07T20:40:39.387Z,9.10
2023-01-07T20:43:06.394Z,9.10
2023-01-07T20:45:38.266Z,9.10
2023-01-07T20:48:05.348Z,9.10
2023-01-07T20:50:35.538Z,9.10
2023-01-07T20:53:02.239Z,9.10
2023-01-07T20:55:28.903Z,9.10
2023-01-07T20:57:55.537Z,9.10
2023-01-07T21:00:22.175Z,9.20
2023-01-07T21:02:48.923Z,9.20
2023-01-07T21:05:20.195Z,9.20
2023-01-07T21:07:47.885Z,9.30
2023-01-07T21:10:16.536Z,9.30
2023-01-07T21:12:43.337Z,9.30
2023-01-07T21:15:14.963Z,9.40
2023-01-07T21:17:42.322Z,9.40
2023-01-07T21:20:13.342Z,9.30
2023-01-07T21:22:40.344Z,9.30
2023-01-07T21:25:13.618Z,9.30
2023-01-07T21:27:40.977Z,9.40
2023-01-07T21:30:09.099Z,9.40
2023-01-07T21:32:35.781Z,9.40
2023-01-07T21:35:02.423Z,9.40
2023-01-07T21:37:29.390Z,9.40
2023-01-07T21:39:56.096Z,9.40
2023-01-07T21:42:22.725Z,9.40
2023-01-07T21:44:49.381Z,9.40
2023-01-07T21:47:16.150Z,9.40
2023-01-07T21:49:43.343Z,9.40
2023-01-07T21:52:10.233Z,9.40
2023-01-07T21:54:36.888Z,9.40
2023-01-07T21:57:03.647Z,9.40
2023-01-07T21:59:30.292Z,9.40
2023-01-07T22:01:57.217Z,9.40
2023-01-07T22:04:24.024Z,9.30
2023-01-07T22:06:50.814Z,9.30
2023-01-07T22:09:17.696Z,9.30
2023-01-07T22:11:44.554Z,9.30
2023-01-07T22:14:17.566Z,9.30
2023-01-07T22:16:44.394Z,9.30
2023-01-07T22:19:12.457Z,9.40
2023-01-07T22:21:39.482Z,9.30
2023-01-07T22:24:07.020Z,9.30
2023-01-07T22:26:33.644Z,9.30
2023-01-07T22:29:03.276Z,9.30
2023-01-07T22:31:38.056Z,9.30
2023-01-07T22:34:06.079Z,9.40
2023-01-07T22:36:55.983Z,9.40
2023-01-07T22:39:34.056Z,9.40
2023-01-07T22:42:07.880Z,9.40
2023-01-07T22:44:42.762Z,9.40
2023-01-07T22:47:14.309Z,9.40
2023-01-07T22:49:42.165Z,9.50
2023-01-07T22:52:10.522Z,9.50
2023-01-07T22:54:37.524Z,9.60
2023-01-07T22:57:07.287Z,9.60
2023-01-07T22:59:35.569Z,9.60
2023-01-07T23:02:02.217Z,9.60
2023-01-07T23:04:29.303Z,9.60
2023-01-07T23:06:56.132Z,9.60
2023-01-07T23:09:22.790Z,9.60
2023-01-07T23:11:50.397Z,9.60
2023-01-07T23:14:22.073Z,9.60
2023-01-07T23:16:49.850Z,9.60
2023-01-07T23:19:17.495Z,9.50
2023-01-07T23:21:46.121Z,9.50
2023-01-07T23:24:13.858Z,9.50
2023-01-07T23:26:41.441Z,9.40
2023-01-07T23:29:08.527Z,9.50
2023-01-07T23:31:36.555Z,9.60
2023-01-07T23:34:04.105Z,9.60
2023-01-07T23:36:30.771Z,9.60
2023-01-07T23:38:57.429Z,9.60
2023-01-07T23:41:24.253Z,9.60
2023-01-07T23:43:51.195Z,9.70
2023-01-07T23:46:18.112Z,9.70
2023-01-07T23:48:44.900Z,9.70
2023-01-07T23:51:19.923Z,9.80
2023-01-07T23:53:47.003Z,9.80
2023-01-07T23:56:14.053Z,9.80
2023-01-07T23:58:40.852Z,9.90
